Latest Weather Observations for Mount Lofty

IDS60801

Issued at 10:51 am CST Monday 26 August 2019 (issued every 10 minutes, with the page automatically refreshed every 10 minutes)

About weather observations | Map of weather stations | Latest weather observations for SA | Other Formats
Station Details ID: 023842 Name: MOUNT LOFTY Lat: -34.98 Lon: 138.71 Height: 685.0 m
Data from the previous 72 hours. | See also: Recent months at Mount Lofty
Date/Time
CST
Temp
°C
App
Temp
°C
Dew
Point
°C
Rel
Hum
%
Delta-T
°C
Wind Press
QNH
hPa
Press
MSL
hPa
Rain since
9am
mm
Dir  Spd
km/h
Gust
km/h
Spd
kts
Gust
kts
26/10:30am 7.2 5.4 3.4 77 1.7 SSE 2 6 1 3 - - 0.0
26/10:00am 6.8 4.6 3.4 79 1.5 SSW 4 7 2 4 - - 0.0
26/09:30am 5.9 3.7 3.6 85 1.0 WSW 4 6 2 3 - - 0.0
26/09:00am 5.4 3.6 3.7 89 0.7 SW 2 6 1 3 - - 0.4
26/08:30am 5.3 3.2 3.8 90 0.7 SW 4 6 2 3 - - 0.4
26/08:00am 4.8 3.1 4.1 95 0.3 WSW 2 6 1 3 - - 0.4
26/07:30am 4.2 2.4 3.6 96 0.3 SW 2 4 1 2 - - 0.4
26/07:00am 4.0 2.6 3.6 97 0.2 CALM 0 0 0 0 - - 0.4
26/06:30am 4.0 1.8 3.6 97 0.2 S 4 6 2 3 - - 0.4
26/06:00am 3.9 2.1 3.5 97 0.2 SSW 2 6 1 3 - - 0.0
26/05:30am 4.2 2.1 3.8 97 0.2 SSW 4 7 2 4 - - 0.0
26/05:00am 4.0 2.2 3.4 96 0.3 S 2 4 1 2 - - 0.0
26/04:30am 4.0 2.2 3.4 96 0.3 SSW 2 4 1 2 - - 0.0
26/04:00am 3.8 2.0 3.4 97 0.2 S 2 4 1 2 - - 0.0
26/03:30am 3.4 1.5 3.0 97 0.2 S 2 6 1 3 - - 0.0
26/03:00am 3.4 1.5 3.0 97 0.2 S 2 6 1 3 - - 0.0
26/02:30am 3.4 1.1 3.0 97 0.2 S 4 6 2 3 - - 0.0
26/02:00am 3.6 1.3 3.0 96 0.3 S 4 6 2 3 - - 0.0
26/01:30am 3.5 1.2 2.9 96 0.3 SSE 4 9 2 5 - - 0.0
26/01:00am 3.9 1.7 3.2 95 0.3 SE 4 7 2 4 - - 0.0
26/12:30am 3.7 1.4 3.0 95 0.3 SSE 4 9 2 5 - - 0.0
26/12:00am 3.5 1.2 2.8 95 0.3 SE 4 9 2 5 - - 0.0
 
Date/Time
CST
Temp
°C
App
Temp
°C
Dew
Point
°C
Rel
Hum
%
Delta-T
°C
Wind Press
QNH
hPa
Press
MSL
hPa
Rain since
9am
mm
Dir  Spd
km/h
Gust
km/h
Spd
kts
Gust
kts
25/11:30pm 3.7 1.1 3.0 95 0.3 SSE 6 9 3 5 - - 0.0
25/11:00pm 3.8 1.1 2.9 94 0.4 SSE 6 9 3 5 - - 0.0
25/10:30pm 3.8 1.1 2.8 93 0.4 SSE 6 13 3 7 - - 0.0
25/10:00pm 3.4 1.0 2.2 92 0.5 SE 4 9 2 5 - - 0.0
25/09:30pm 3.6 1.2 2.4 92 0.5 SE 4 7 2 4 - - 0.0
25/09:00pm 3.8 1.1 2.6 92 0.5 SSE 6 11 3 6 - - 0.0
25/08:30pm 3.7 1.0 2.4 91 0.5 SSE 6 13 3 7 - - 0.0
25/08:00pm 3.5 1.1 1.9 89 0.7 SSE 4 11 2 6 - - 0.0
25/07:30pm 3.8 1.0 2.0 88 0.7 SSE 6 9 3 5 - - 0.0
25/07:00pm 3.9 1.2 2.6 91 0.5 SSE 6 9 3 5 - - 0.0
25/06:30pm 4.1 1.8 2.6 90 0.6 SE 4 6 2 3 - - 0.0
25/06:00pm 4.5 2.1 2.4 86 0.9 SE 4 9 2 5 - - 0.0
25/05:30pm 5.4 3.1 2.8 83 1.1 SSE 4 9 2 5 - - 0.0
25/05:00pm 5.9 3.7 3.4 84 1.1 S 4 9 2 5 - - 0.0
25/04:30pm 6.3 4.5 3.5 82 1.2 SSW 2 6 1 3 - - 0.0
25/04:00pm 6.7 4.6 3.9 82 1.2 SSW 4 6 2 3 - - 0.0
25/03:30pm 6.9 5.1 3.2 77 1.6 S 2 6 1 3 - - 0.0
25/03:00pm 7.1 4.5 3.2 76 1.7 S 6 13 3 7 - - 0.0
25/02:30pm 6.2 4.1 4.0 86 1.0 S 4 7 2 4 - - 0.0
25/02:00pm 7.2 4.6 3.4 77 1.7 SW 6 11 3 6 - - 0.0
25/01:30pm 6.5 4.3 3.5 81 1.3 SSW 4 7 2 4 - - 0.0
25/01:00pm 7.3 5.1 3.5 77 1.7 S 4 9 2 5 - - 0.0
25/12:30pm 7.0 4.7 2.7 74 1.9 SW 4 9 2 5 - - 0.0
25/12:00pm 7.2 5.2 2.1 70 2.2 SSE 2 9 1 5 - - 0.0
25/11:30am 6.8 3.8 1.1 67 2.4 SE 6 13 3 7 - - 0.0
25/11:00am 6.2 3.2 0.9 69 2.2 SSW 6 13 3 7 - - 0.0
25/10:30am 6.7 3.7 1.8 71 2.1 S 7 13 4 7 - - 0.0
25/10:00am 5.6 2.8 1.9 77 1.6 SSW 6 11 3 6 - - 0.0
25/09:30am 5.1 2.2 2.6 84 1.1 SW 7 17 4 9 - - 0.0
25/09:00am 5.0 2.3 2.9 86 0.9 SW 6 9 3 5 - - 0.4
25/08:30am 4.4 1.7 2.6 88 0.8 S 6 13 3 7 - - 0.4
25/08:00am 3.4 0.5 2.5 94 0.4 SSW 7 17 4 9 - - 0.4
25/07:30am 3.2 0.4 2.2 93 0.4 SSW 6 13 3 7 - - 0.4
25/07:00am 3.0 0.2 2.3 95 0.3 SSW 6 11 3 6 - - 0.4
25/06:30am 3.0 0.6 2.4 96 0.2 SSW 4 9 2 5 - - 0.4
25/06:00am 3.0 0.1 1.5 90 0.6 SSW 6 11 3 6 - - 0.4
25/05:30am 3.1 0.2 1.2 87 0.8 SSW 6 9 3 5 - - 0.4
25/05:00am 3.3 0.3 2.3 93 0.4 SW 7 13 4 7 - - 0.4
25/04:30am 3.1 0.0 1.6 90 0.6 SW 7 15 4 8 - - 0.4
25/04:00am 3.5 0.3 0.6 81 1.2 SSW 7 13 4 7 - - 0.4
25/03:30am 3.8 0.6 0.8 81 1.2 SSW 7 13 4 7 - - 0.4
25/03:00am 3.7 0.4 -0.1 76 1.5 SSW 7 13 4 7 - - 0.4
25/02:30am 3.4 0.1 -1.3 71 1.8 SSW 6 13 3 7 - - 0.2
25/02:00am 3.5 0.1 -0.7 74 1.6 SSW 7 15 4 8 - - 0.2
25/01:30am 3.5 -0.1 0.6 81 1.2 SSW 9 17 5 9 - - 0.2
25/01:00am 3.8 0.9 1.5 85 0.9 SSW 6 13 3 7 - - 0.2
25/12:30am 3.6 0.8 2.3 91 0.5 S 6 13 3 7 - - 0.2
25/12:00am 3.7 1.0 2.5 92 0.5 S 6 13 3 7 - - 0.2
 
Date/Time
CST
Temp
°C
App
Temp
°C
Dew
Point
°C
Rel
Hum
%
Delta-T
°C
Wind Press
QNH
hPa
Press
MSL
hPa
Rain since
9am
mm
Dir  Spd
km/h
Gust
km/h
Spd
kts
Gust
kts
24/11:30pm 3.8 0.9 2.5 91 0.5 SSW 7 15 4 8 - - 0.2
24/11:00pm 4.0 1.1 2.7 91 0.5 S 7 13 4 7 - - 0.2
24/10:30pm 3.9 1.0 2.7 92 0.5 S 7 13 4 7 - - 0.2
24/10:00pm 4.0 1.2 3.0 93 0.4 S 7 13 4 7 - - 0.2
24/09:30pm 4.1 1.2 2.8 91 0.6 SSW 7 17 4 9 - - 0.2
24/09:00pm 4.3 1.1 3.1 92 0.5 SSW 9 15 5 8 - - 0.2
24/08:30pm 4.5 1.7 3.3 92 0.5 SSW 7 15 4 8 - - 0.2
24/08:00pm 4.6 1.8 3.4 92 0.5 SSW 7 15 4 8 - - 0.2
24/07:30pm 5.0 2.3 3.5 90 0.7 SSW 7 15 4 8 - - 0.2
24/07:00pm 5.4 2.6 3.4 87 0.9 SSW 7 19 4 10 - - 0.2
24/06:30pm 5.5 2.9 3.2 85 1.0 SSW 6 11 3 6 - - 0.2
24/06:00pm 6.0 3.4 3.0 81 1.3 SSW 6 17 3 9 - - 0.2
24/05:30pm 7.2 4.8 4.2 81 1.4 SSW 6 9 3 5 - - 0.2
24/05:00pm 7.4 4.7 3.8 78 1.6 SW 7 20 4 11 - - 0.2
24/04:30pm 7.8 4.9 4.7 81 1.4 SW 9 19 5 10 - - 0.2
24/04:00pm 7.9 5.8 5.7 86 1.0 SW 6 13 3 7 - - 0.2
24/03:30pm 7.9 5.6 5.7 86 1.0 SW 7 15 4 8 - - 0.2
24/03:00pm 8.1 5.4 5.7 85 1.1 WSW 9 20 5 11 - - 0.2
24/02:30pm 7.9 5.6 5.5 85 1.1 WSW 7 19 4 10 - - 0.2
24/02:00pm 8.7 6.3 7.2 90 0.7 W 9 22 5 12 - - 0.2
24/01:30pm 7.6 4.9 7.2 97 0.2 W 11 26 6 14 - - 0.2
24/01:00pm 7.4 4.6 7.1 98 0.1 W 11 24 6 13 - - 0.2
24/12:30pm 8.4 5.9 8.0 97 0.2 W 11 20 6 11 - - 0.0
24/12:00pm 8.6 5.2 7.5 93 0.5 WNW 15 28 8 15 - - 0.0
24/11:30am 8.8 5.1 6.4 85 1.2 WNW 15 26 8 14 - - 0.0
24/11:00am 9.2 4.6 5.8 79 1.6 WNW 19 37 10 20 - - 0.0
24/10:30am 8.8 3.9 4.2 73 2.1 WNW 19 32 10 17 - - 0.0
24/10:00am 9.1 3.5 3.3 67 2.6 WNW 22 43 12 23 - - 0.0
24/09:30am 8.9 2.4 2.9 66 2.7 WNW 26 46 14 25 - - 0.0
24/09:00am 8.8 2.3 2.4 64 2.8 WNW 26 44 14 24 - - 0.0
24/08:30am 9.4 3.2 2.3 61 3.1 NW 24 41 13 22 - - 0.0
24/08:00am 9.2 1.8 1.9 60 3.2 WNW 30 57 16 31 - - 0.0
24/07:30am 9.4 2.3 1.6 58 3.4 NW 28 46 15 25 - - 0.0
24/07:11am 9.4 2.3 1.6 58 3.4 NW 28 46 15 25 - - 0.0
24/07:00am 9.0 2.7 1.4 59 3.3 NW 24 50 13 27 - - 0.0
24/06:52am 9.3 2.3 1.7 59 3.3 NW 28 50 15 27 - - 0.0
24/06:30am 9.0 2.3 1.4 59 3.3 NW 26 56 14 30 - - 0.0
24/06:06am 9.6 2.5 1.5 57 3.5 NW 28 50 15 27 - - 0.0
24/06:00am 9.5 2.8 1.4 57 3.5 NW 26 50 14 27 - - 0.0
24/05:30am 9.6 2.5 1.5 57 3.5 NW 28 57 15 31 - - 0.0
24/05:02am 9.9 2.8 1.5 56 3.6 NW 28 50 15 27 - - 0.0
24/05:00am 9.4 2.7 1.3 57 3.5 NW 26 50 14 27 - - 0.0
24/04:35am 9.9 2.8 1.3 55 3.7 NW 28 48 15 26 - - 0.0
24/04:30am 9.9 3.2 1.3 55 3.7 NW 26 46 14 25 - - 0.0
24/04:00am 10.4 2.9 1.2 53 4.0 NW 30 52 16 28 - - 0.0
24/03:44am 10.6 3.5 1.2 52 4.1 NW 28 50 15 27 - - 0.0
24/03:30am 10.1 3.8 1.5 55 3.7 NW 24 41 13 22 - - 0.0
24/03:00am 10.0 4.1 1.6 56 3.7 NW 22 39 12 21 - - 0.0
24/02:30am 10.1 3.8 1.5 55 3.7 NW 24 48 13 26 - - 0.0
24/02:00am 10.0 4.1 1.6 56 3.7 NW 22 39 12 21 - - 0.0
24/01:30am 10.0 4.1 1.9 57 3.5 NW 22 39 12 21 - - 0.0
24/01:00am 10.0 4.2 2.1 58 3.5 NW 22 33 12 18 - - 0.0
24/12:30am 9.7 4.4 2.8 62 3.1 NW 20 33 11 18 - - 0.0
24/12:00am 10.0 4.3 2.8 61 3.2 NW 22 35 12 19 - - 0.0
 
Date/Time
CST
Temp
°C
App
Temp
°C
Dew
Point
°C
Rel
Hum
%
Delta-T
°C
Wind Press
QNH
hPa
Press
MSL
hPa
Rain since
9am
mm
Dir  Spd
km/h
Gust
km/h
Spd
kts
Gust
kts
23/11:30pm 10.3 4.6 2.9 60 3.3 NW 22 33 12 18 - - 0.0
23/11:00pm 11.3 5.2 2.9 56 3.8 NW 24 44 13 24 - - 0.0
23/10:30pm 11.8 5.4 3.1 55 4.0 NW 26 48 14 26 - - 0.0
23/10:00pm 11.6 5.6 3.4 57 3.8 NW 24 44 13 24 - - 0.0
23/09:30pm 11.6 6.0 3.6 58 3.7 NW 22 35 12 19 - - 0.0
23/09:00pm 11.5 6.0 3.8 59 3.6 NW 22 37 12 20 - - 0.0
23/08:30pm 11.3 5.8 3.8 60 3.5 NW 22 35 12 19 - - 0.0
23/08:00pm 10.9 6.0 3.9 62 3.2 NW 19 30 10 16 - - 0.0
23/07:30pm 11.0 6.1 4.2 63 3.2 NW 19 33 10 18 - - 0.0
23/07:00pm 10.7 5.9 4.6 66 2.9 NW 19 33 10 18 - - 0.0
23/06:30pm 10.5 6.5 5.1 69 2.6 NW 15 26 8 14 - - 0.0
23/06:00pm 10.4 6.0 5.0 69 2.5 NW 17 24 9 13 - - 0.0
23/05:30pm 11.1 6.4 5.2 67 2.8 NW 19 28 10 15 - - 0.0
23/05:00pm 11.7 6.9 4.9 63 3.2 WNW 19 32 10 17 - - 0.0
23/04:30pm 12.2 7.3 5.1 62 3.4 WNW 20 33 11 18 - - 0.0
23/04:00pm 12.4 7.8 5.6 63 3.3 WNW 19 33 10 18 - - 0.0
23/03:30pm 12.5 8.3 5.9 64 3.2 WNW 17 30 9 16 - - 0.0
23/03:00pm 12.8 8.5 7.0 68 2.9 WNW 19 39 10 21 - - 0.0
23/02:30pm 12.9 8.6 6.9 67 3.0 NW 19 35 10 19 - - 0.0
23/02:00pm 12.6 8.4 7.3 70 2.7 NW 19 37 10 20 - - 0.0
23/01:30pm 12.2 8.3 6.9 70 2.6 NW 17 33 9 18 - - 0.0
23/01:00pm 11.3 5.9 6.2 71 2.5 NW 24 41 13 22 - - 0.0
23/12:30pm 11.1 5.7 6.3 72 2.3 NW 24 41 13 22 - - 0.0
23/12:00pm 10.7 5.4 6.6 76 2.0 NW 24 46 13 25 - - 0.0
23/11:30am 10.2 4.8 6.5 78 1.8 NW 24 39 13 21 - - 0.0
23/11:00am 9.8 5.2 6.3 79 1.7 NW 20 37 11 20 - - 0.0

Other formats

Comma delimited format used in spreadsheet applications
http://www.bom.gov.au/fwo/IDS60801/IDS60801.95678.axf

JavaScript Object Notation format (JSON) in row-major order
http://www.bom.gov.au/fwo/IDS60801/IDS60801.95678.json

Data quality

Most of these data are generated automatically and are frequently updated. Quality checks on data are not normally performed. It is possible for incorrect values to appear. Refer to information at About Latest Weather Observations and please check the disclaimer before using these data.